Terminal Aerodrome Forecast
Issued by NWS Tampa Bay Area, FL

Home | Current Version | Previous Version | Text Only | Print | Product List | Glossary On
Versions: 1 2 3 4 5 6 7 8 9 10 11 12 13 14 15 16 17 18 19 20 21 22 23 24 25
000
FTUS42 KTBW 231126
TAFTPA
TAF
KTPA 231126Z 2312/2412 07006KT P6SM SKC
     FM231400 08007KT P6SM SCT035 SCT250
     FM232100 03009KT P6SM VCTS BKN050CB BKN100
     FM240100 06011KT P6SM SCT045 SCT100 BKN250
     FM240700 08007KT P6SM FEW015 SCT250=

USA.gov is the U.S. government's official web portal to all federal, state and local government web resources and services.